sensor_id;sensor_type;location;lat;lon;timestamp;P1;durP1;ratioP1;P2;durP2;ratioP2
11187;SDS011;5650;52.700;7.306;2022-11-14T00:02:22;66.05;;;44.38;;
11187;SDS011;5650;52.700;7.306;2022-11-14T00:04:50;65.57;;;45.45;;
11187;SDS011;5650;52.700;7.306;2022-11-14T00:07:17;67.03;;;47.08;;
11187;SDS011;5650;52.700;7.306;2022-11-14T00:09:53;68.00;;;46.17;;
11187;SDS011;5650;52.700;7.306;2022-11-14T00:12:20;68.70;;;46.00;;
11187;SDS011;5650;52.700;7.306;2022-11-14T00:14:51;67.50;;;44.90;;
11187;SDS011;5650;52.700;7.306;2022-11-14T00:17:19;66.82;;;46.10;;
11187;SDS011;5650;52.700;7.306;2022-11-14T00:19:57;68.35;;;46.15;;
11187;SDS011;5650;52.700;7.306;2022-11-14T00:22:27;71.80;;;46.35;;
11187;SDS011;5650;52.700;7.306;2022-11-14T00:24:55;93.07;;;60.70;;
11187;SDS011;5650;52.700;7.306;2022-11-14T00:27:22;70.28;;;46.47;;
11187;SDS011;5650;52.700;7.306;2022-11-14T00:29:49;74.45;;;46.83;;
11187;SDS011;5650;52.700;7.306;2022-11-14T00:32:17;72.60;;;46.22;;
11187;SDS011;5650;52.700;7.306;2022-11-14T00:34:51;77.35;;;48.95;;
11187;SDS011;5650;52.700;7.306;2022-11-14T00:37:23;73.55;;;47.90;;
11187;SDS011;5650;52.700;7.306;2022-11-14T00:39:51;69.97;;;47.22;;
11187;SDS011;5650;52.700;7.306;2022-11-14T00:42:18;69.85;;;47.17;;
11187;SDS011;5650;52.700;7.306;2022-11-14T00:44:45;71.72;;;47.67;;
11187;SDS011;5650;52.700;7.306;2022-11-14T00:47:12;76.43;;;48.42;;
11187;SDS011;5650;52.700;7.306;2022-11-14T00:49:42;73.00;;;46.70;;
11187;SDS011;5650;52.700;7.306;2022-11-14T00:52:09;73.35;;;46.65;;
11187;SDS011;5650;52.700;7.306;2022-11-14T00:54:38;67.00;;;44.45;;
11187;SDS011;5650;52.700;7.306;2022-11-14T00:57:05;67.47;;;45.25;;
11187;SDS011;5650;52.700;7.306;2022-11-14T00:59:38;70.55;;;46.72;;
11187;SDS011;5650;52.700;7.306;2022-11-14T01:02:05;69.72;;;45.85;;
11187;SDS011;5650;52.700;7.306;2022-11-14T01:04:40;66.15;;;43.17;;
11187;SDS011;5650;52.700;7.306;2022-11-14T01:07:08;69.45;;;44.88;;
11187;SDS011;5650;52.700;7.306;2022-11-14T01:09:35;65.45;;;45.30;;
11187;SDS011;5650;52.700;7.306;2022-11-14T01:12:07;74.93;;;46.20;;
11187;SDS011;5650;52.700;7.306;2022-11-14T01:14:34;67.63;;;45.03;;
11187;SDS011;5650;52.700;7.306;2022-11-14T01:17:05;65.57;;;45.15;;
11187;SDS011;5650;52.700;7.306;2022-11-14T01:19:32;69.82;;;46.30;;
11187;SDS011;5650;52.700;7.306;2022-11-14T01:22:05;68.57;;;46.17;;
11187;SDS011;5650;52.700;7.306;2022-11-14T01:24:35;65.65;;;45.72;;
11187;SDS011;5650;52.700;7.306;2022-11-14T01:27:07;68.25;;;45.20;;
11187;SDS011;5650;52.700;7.306;2022-11-14T01:29:37;68.43;;;44.53;;
11187;SDS011;5650;52.700;7.306;2022-11-14T01:32:07;72.03;;;46.25;;
11187;SDS011;5650;52.700;7.306;2022-11-14T01:34:34;67.80;;;45.20;;
11187;SDS011;5650;52.700;7.306;2022-11-14T01:37:01;69.43;;;45.83;;
11187;SDS011;5650;52.700;7.306;2022-11-14T01:39:29;69.50;;;46.53;;
11187;SDS011;5650;52.700;7.306;2022-11-14T01:41:56;64.82;;;43.70;;
11187;SDS011;5650;52.700;7.306;2022-11-14T01:44:42;66.22;;;45.00;;
11187;SDS011;5650;52.700;7.306;2022-11-14T01:47:11;68.53;;;45.08;;
11187;SDS011;5650;52.700;7.306;2022-11-14T01:49:44;74.03;;;46.22;;
11187;SDS011;5650;52.700;7.306;2022-11-14T01:52:17;67.50;;;45.83;;
11187;SDS011;5650;52.700;7.306;2022-11-14T01:54:47;71.05;;;46.38;;
11187;SDS011;5650;52.700;7.306;2022-11-14T01:57:17;67.70;;;45.80;;
11187;SDS011;5650;52.700;7.306;2022-11-14T01:59:57;64.72;;;45.95;;
11187;SDS011;5650;52.700;7.306;2022-11-14T02:02:34;65.22;;;46.35;;
11187;SDS011;5650;52.700;7.306;2022-11-14T02:05:03;66.25;;;44.83;;
11187;SDS011;5650;52.700;7.306;2022-11-14T02:07:35;78.47;;;49.42;;
11187;SDS011;5650;52.700;7.306;2022-11-14T02:10:08;72.05;;;47.20;;
11187;SDS011;5650;52.700;7.306;2022-11-14T02:12:52;69.47;;;46.60;;
11187;SDS011;5650;52.700;7.306;2022-11-14T02:15:28;68.70;;;46.75;;
11187;SDS011;5650;52.700;7.306;2022-11-14T02:17:55;73.45;;;46.00;;
11187;SDS011;5650;52.700;7.306;2022-11-14T02:20:32;70.10;;;47.75;;
11187;SDS011;5650;52.700;7.306;2022-11-14T02:23:01;70.35;;;44.33;;
11187;SDS011;5650;52.700;7.306;2022-11-14T02:25:41;65.90;;;44.80;;
11187;SDS011;5650;52.700;7.306;2022-11-14T02:28:12;71.07;;;47.08;;
11187;SDS011;5650;52.700;7.306;2022-11-14T02:30:42;63.17;;;44.63;;
11187;SDS011;5650;52.700;7.306;2022-11-14T02:33:09;65.45;;;46.28;;
11187;SDS011;5650;52.700;7.306;2022-11-14T02:35:44;68.40;;;45.95;;
11187;SDS011;5650;52.700;7.306;2022-11-14T02:38:11;63.75;;;43.97;;
11187;SDS011;5650;52.700;7.306;2022-11-14T02:40:41;64.75;;;45.00;;
11187;SDS011;5650;52.700;7.306;2022-11-14T02:43:14;69.75;;;46.15;;
11187;SDS011;5650;52.700;7.306;2022-11-14T02:45:44;63.97;;;44.83;;
11187;SDS011;5650;52.700;7.306;2022-11-14T02:48:12;62.28;;;44.42;;
11187;SDS011;5650;52.700;7.306;2022-11-14T02:50:39;68.75;;;45.20;;
11187;SDS011;5650;52.700;7.306;2022-11-14T02:53:08;62.83;;;43.40;;
11187;SDS011;5650;52.700;7.306;2022-11-14T02:55:39;66.63;;;46.28;;
11187;SDS011;5650;52.700;7.306;2022-11-14T02:58:06;62.17;;;43.70;;
11187;SDS011;5650;52.700;7.306;2022-11-14T03:00:33;68.85;;;47.00;;
11187;SDS011;5650;52.700;7.306;2022-11-14T03:03:00;63.28;;;45.03;;
11187;SDS011;5650;52.700;7.306;2022-11-14T03:05:28;64.70;;;45.00;;
11187;SDS011;5650;52.700;7.306;2022-11-14T03:07:55;65.03;;;44.55;;
11187;SDS011;5650;52.700;7.306;2022-11-14T03:10:27;64.10;;;43.80;;
11187;SDS011;5650;52.700;7.306;2022-11-14T03:12:55;67.00;;;45.72;;
11187;SDS011;5650;52.700;7.306;2022-11-14T03:15:35;61.22;;;43.97;;
11187;SDS011;5650;52.700;7.306;2022-11-14T03:18:06;67.90;;;45.78;;
11187;SDS011;5650;52.700;7.306;2022-11-14T03:20:33;62.80;;;42.80;;
11187;SDS011;5650;52.700;7.306;2022-11-14T03:23:00;70.07;;;45.28;;
11187;SDS011;5650;52.700;7.306;2022-11-14T03:25:32;62.30;;;44.15;;
11187;SDS011;5650;52.700;7.306;2022-11-14T03:28:01;70.28;;;44.97;;
11187;SDS011;5650;52.700;7.306;2022-11-14T03:30:28;62.85;;;43.08;;
11187;SDS011;5650;52.700;7.306;2022-11-14T03:32:59;65.35;;;46.63;;
11187;SDS011;5650;52.700;7.306;2022-11-14T03:35:27;63.25;;;44.38;;
11187;SDS011;5650;52.700;7.306;2022-11-14T03:38:00;62.08;;;42.97;;
11187;SDS011;5650;52.700;7.306;2022-11-14T03:40:30;60.75;;;43.60;;
11187;SDS011;5650;52.700;7.306;2022-11-14T03:42:59;68.60;;;44.50;;
11187;SDS011;5650;52.700;7.306;2022-11-14T03:45:29;61.20;;;43.00;;
11187;SDS011;5650;52.700;7.306;2022-11-14T03:47:59;63.72;;;43.17;;
11187;SDS011;5650;52.700;7.306;2022-11-14T03:50:33;66.25;;;44.10;;
11187;SDS011;5650;52.700;7.306;2022-11-14T03:53:07;64.70;;;43.08;;
11187;SDS011;5650;52.700;7.306;2022-11-14T03:55:36;67.05;;;44.17;;
11187;SDS011;5650;52.700;7.306;2022-11-14T03:58:05;69.32;;;43.55;;
11187;SDS011;5650;52.700;7.306;2022-11-14T04:00:33;67.63;;;43.85;;
11187;SDS011;5650;52.700;7.306;2022-11-14T04:03:00;66.85;;;43.67;;
11187;SDS011;5650;52.700;7.306;2022-11-14T04:05:33;72.90;;;46.45;;
11187;SDS011;5650;52.700;7.306;2022-11-14T04:08:03;66.90;;;43.92;;
11187;SDS011;5650;52.700;7.306;2022-11-14T04:10:33;73.05;;;45.33;;
11187;SDS011;5650;52.700;7.306;2022-11-14T04:13:03;73.05;;;45.97;;
11187;SDS011;5650;52.700;7.306;2022-11-14T04:15:30;74.57;;;47.60;;
11187;SDS011;5650;52.700;7.306;2022-11-14T04:18:00;69.97;;;45.33;;
11187;SDS011;5650;52.700;7.306;2022-11-14T04:20:27;65.20;;;43.75;;
11187;SDS011;5650;52.700;7.306;2022-11-14T04:23:00;75.43;;;46.78;;
11187;SDS011;5650;52.700;7.306;2022-11-14T04:25:27;69.97;;;45.88;;
11187;SDS011;5650;52.700;7.306;2022-11-14T04:27:59;69.20;;;43.78;;
11187;SDS011;5650;52.700;7.306;2022-11-14T04:30:26;70.85;;;44.47;;
11187;SDS011;5650;52.700;7.306;2022-11-14T04:32:56;68.13;;;43.92;;
11187;SDS011;5650;52.700;7.306;2022-11-14T04:35:26;71.80;;;44.35;;
11187;SDS011;5650;52.700;7.306;2022-11-14T04:37:53;70.78;;;44.55;;
11187;SDS011;5650;52.700;7.306;2022-11-14T04:40:25;66.32;;;44.30;;
11187;SDS011;5650;52.700;7.306;2022-11-14T04:42:53;73.47;;;45.00;;
11187;SDS011;5650;52.700;7.306;2022-11-14T04:45:24;73.70;;;45.75;;
11187;SDS011;5650;52.700;7.306;2022-11-14T04:47:51;72.22;;;45.75;;
11187;SDS011;5650;52.700;7.306;2022-11-14T04:50:19;69.72;;;43.53;;
11187;SDS011;5650;52.700;7.306;2022-11-14T04:53:04;67.82;;;43.53;;
11187;SDS011;5650;52.700;7.306;2022-11-14T04:55:31;68.15;;;42.90;;
11187;SDS011;5650;52.700;7.306;2022-11-14T04:57:59;74.43;;;45.33;;
11187;SDS011;5650;52.700;7.306;2022-11-14T05:00:28;71.18;;;44.42;;
11187;SDS011;5650;52.700;7.306;2022-11-14T05:02:57;74.28;;;45.97;;
11187;SDS011;5650;52.700;7.306;2022-11-14T05:05:25;76.45;;;46.85;;
11187;SDS011;5650;52.700;7.306;2022-11-14T05:08:04;79.00;;;46.00;;
11187;SDS011;5650;52.700;7.306;2022-11-14T05:10:31;82.97;;;46.15;;
11187;SDS011;5650;52.700;7.306;2022-11-14T05:13:01;83.43;;;47.75;;
11187;SDS011;5650;52.700;7.306;2022-11-14T05:15:33;74.60;;;47.03;;
11187;SDS011;5650;52.700;7.306;2022-11-14T05:18:03;77.40;;;46.88;;
11187;SDS011;5650;52.700;7.306;2022-11-14T05:20:31;78.90;;;48.40;;
11187;SDS011;5650;52.700;7.306;2022-11-14T05:22:58;78.95;;;47.67;;
11187;SDS011;5650;52.700;7.306;2022-11-14T05:25:25;73.38;;;45.55;;
11187;SDS011;5650;52.700;7.306;2022-11-14T05:27:52;79.50;;;48.20;;
11187;SDS011;5650;52.700;7.306;2022-11-14T05:30:19;75.85;;;47.00;;
11187;SDS011;5650;52.700;7.306;2022-11-14T05:32:48;79.35;;;48.53;;
11187;SDS011;5650;52.700;7.306;2022-11-14T05:35:17;78.03;;;47.92;;
11187;SDS011;5650;52.700;7.306;2022-11-14T05:37:44;76.55;;;46.50;;
11187;SDS011;5650;52.700;7.306;2022-11-14T05:40:11;87.30;;;51.55;;
11187;SDS011;5650;52.700;7.306;2022-11-14T05:42:41;76.95;;;47.38;;
11187;SDS011;5650;52.700;7.306;2022-11-14T05:45:08;76.57;;;47.33;;
11187;SDS011;5650;52.700;7.306;2022-11-14T05:47:36;82.03;;;49.58;;
11187;SDS011;5650;52.700;7.306;2022-11-14T05:50:05;88.93;;;50.28;;
11187;SDS011;5650;52.700;7.306;2022-11-14T05:52:33;84.32;;;48.72;;
11187;SDS011;5650;52.700;7.306;2022-11-14T05:55:00;87.05;;;51.50;;
11187;SDS011;5650;52.700;7.306;2022-11-14T05:57:27;79.07;;;48.97;;
11187;SDS011;5650;52.700;7.306;2022-11-14T05:59:58;82.28;;;50.30;;
11187;SDS011;5650;52.700;7.306;2022-11-14T06:02:25;79.85;;;49.33;;
11187;SDS011;5650;52.700;7.306;2022-11-14T06:04:52;77.22;;;46.13;;
11187;SDS011;5650;52.700;7.306;2022-11-14T06:07:21;79.47;;;48.85;;
11187;SDS011;5650;52.700;7.306;2022-11-14T06:09:48;73.97;;;46.80;;
11187;SDS011;5650;52.700;7.306;2022-11-14T06:12:16;72.75;;;45.53;;
11187;SDS011;5650;52.700;7.306;2022-11-14T06:14:43;78.88;;;48.08;;
11187;SDS011;5650;52.700;7.306;2022-11-14T06:17:10;82.70;;;48.47;;
11187;SDS011;5650;52.700;7.306;2022-11-14T06:19:40;75.70;;;46.55;;
11187;SDS011;5650;52.700;7.306;2022-11-14T06:22:08;71.32;;;44.97;;
11187;SDS011;5650;52.700;7.306;2022-11-14T06:24:36;73.07;;;44.85;;
11187;SDS011;5650;52.700;7.306;2022-11-14T06:27:03;74.32;;;45.72;;
11187;SDS011;5650;52.700;7.306;2022-11-14T06:29:31;76.13;;;47.45;;
11187;SDS011;5650;52.700;7.306;2022-11-14T06:31:58;76.90;;;47.38;;
11187;SDS011;5650;52.700;7.306;2022-11-14T06:34:25;76.88;;;47.38;;
11187;SDS011;5650;52.700;7.306;2022-11-14T06:36:55;72.30;;;44.30;;
11187;SDS011;5650;52.700;7.306;2022-11-14T06:39:24;82.03;;;46.38;;
11187;SDS011;5650;52.700;7.306;2022-11-14T06:41:53;77.60;;;47.78;;
11187;SDS011;5650;52.700;7.306;2022-11-14T06:44:20;78.22;;;46.90;;
11187;SDS011;5650;52.700;7.306;2022-11-14T06:46:50;76.43;;;47.25;;
11187;SDS011;5650;52.700;7.306;2022-11-14T06:49:20;78.38;;;47.45;;
11187;SDS011;5650;52.700;7.306;2022-11-14T06:51:52;79.88;;;47.92;;
11187;SDS011;5650;52.700;7.306;2022-11-14T06:54:21;74.10;;;45.83;;
11187;SDS011;5650;52.700;7.306;2022-11-14T06:56:48;72.10;;;44.65;;
11187;SDS011;5650;52.700;7.306;2022-11-14T06:59:26;75.13;;;46.08;;
11187;SDS011;5650;52.700;7.306;2022-11-14T07:01:56;73.55;;;45.80;;
11187;SDS011;5650;52.700;7.306;2022-11-14T07:04:23;74.18;;;44.50;;
11187;SDS011;5650;52.700;7.306;2022-11-14T07:06:54;69.63;;;44.58;;
11187;SDS011;5650;52.700;7.306;2022-11-14T07:09:28;73.00;;;44.70;;
11187;SDS011;5650;52.700;7.306;2022-11-14T07:12:04;74.80;;;44.45;;
11187;SDS011;5650;52.700;7.306;2022-11-14T07:14:34;72.68;;;45.00;;
11187;SDS011;5650;52.700;7.306;2022-11-14T07:17:01;71.97;;;43.38;;
11187;SDS011;5650;52.700;7.306;2022-11-14T07:19:28;71.85;;;43.70;;
11187;SDS011;5650;52.700;7.306;2022-11-14T07:21:55;78.95;;;45.83;;
11187;SDS011;5650;52.700;7.306;2022-11-14T07:24:25;75.60;;;45.55;;
11187;SDS011;5650;52.700;7.306;2022-11-14T07:27:05;79.15;;;46.33;;
11187;SDS011;5650;52.700;7.306;2022-11-14T07:29:35;78.20;;;44.85;;
11187;SDS011;5650;52.700;7.306;2022-11-14T07:32:16;78.32;;;44.60;;
11187;SDS011;5650;52.700;7.306;2022-11-14T07:34:46;73.22;;;43.67;;
11187;SDS011;5650;52.700;7.306;2022-11-14T07:37:13;74.28;;;44.13;;
11187;SDS011;5650;52.700;7.306;2022-11-14T07:39:50;74.78;;;43.47;;
11187;SDS011;5650;52.700;7.306;2022-11-14T07:42:20;79.95;;;46.85;;
11187;SDS011;5650;52.700;7.306;2022-11-14T07:44:48;74.28;;;45.00;;
11187;SDS011;5650;52.700;7.306;2022-11-14T07:47:16;70.45;;;42.55;;
11187;SDS011;5650;52.700;7.306;2022-11-14T07:49:52;72.55;;;43.47;;
11187;SDS011;5650;52.700;7.306;2022-11-14T07:52:22;70.20;;;43.05;;
11187;SDS011;5650;52.700;7.306;2022-11-14T07:54:49;69.10;;;42.40;;
11187;SDS011;5650;52.700;7.306;2022-11-14T07:57:20;74.30;;;44.42;;
11187;SDS011;5650;52.700;7.306;2022-11-14T07:59:50;69.20;;;43.20;;
11187;SDS011;5650;52.700;7.306;2022-11-14T08:02:17;68.90;;;43.40;;
11187;SDS011;5650;52.700;7.306;2022-11-14T08:04:44;74.22;;;44.10;;
11187;SDS011;5650;52.700;7.306;2022-11-14T08:07:11;68.75;;;41.25;;
11187;SDS011;5650;52.700;7.306;2022-11-14T08:09:42;64.60;;;40.85;;
11187;SDS011;5650;52.700;7.306;2022-11-14T08:12:12;65.80;;;43.25;;
11187;SDS011;5650;52.700;7.306;2022-11-14T08:14:39;64.88;;;40.92;;
11187;SDS011;5650;52.700;7.306;2022-11-14T08:17:08;65.80;;;42.63;;
11187;SDS011;5650;52.700;7.306;2022-11-14T08:19:38;61.72;;;41.75;;
11187;SDS011;5650;52.700;7.306;2022-11-14T08:22:08;61.28;;;42.13;;
11187;SDS011;5650;52.700;7.306;2022-11-14T08:24:35;63.97;;;42.55;;
11187;SDS011;5650;52.700;7.306;2022-11-14T08:27:02;61.03;;;42.03;;
11187;SDS011;5650;52.700;7.306;2022-11-14T08:29:29;62.33;;;42.03;;
11187;SDS011;5650;52.700;7.306;2022-11-14T08:31:57;62.00;;;41.00;;
11187;SDS011;5650;52.700;7.306;2022-11-14T08:34:26;63.05;;;40.95;;
11187;SDS011;5650;52.700;7.306;2022-11-14T08:36:54;63.47;;;41.67;;
11187;SDS011;5650;52.700;7.306;2022-11-14T08:39:22;60.58;;;41.03;;
11187;SDS011;5650;52.700;7.306;2022-11-14T08:41:50;64.55;;;40.25;;
11187;SDS011;5650;52.700;7.306;2022-11-14T08:44:17;57.92;;;39.83;;
11187;SDS011;5650;52.700;7.306;2022-11-14T08:46:48;57.60;;;39.17;;
11187;SDS011;5650;52.700;7.306;2022-11-14T08:49:16;59.83;;;41.03;;
11187;SDS011;5650;52.700;7.306;2022-11-14T08:51:46;58.38;;;39.35;;
11187;SDS011;5650;52.700;7.306;2022-11-14T08:54:13;55.58;;;38.85;;
11187;SDS011;5650;52.700;7.306;2022-11-14T08:56:41;60.65;;;40.17;;
11187;SDS011;5650;52.700;7.306;2022-11-14T08:59:08;57.35;;;39.53;;
11187;SDS011;5650;52.700;7.306;2022-11-14T09:01:36;60.05;;;39.33;;
11187;SDS011;5650;52.700;7.306;2022-11-14T09:04:03;58.30;;;39.58;;
11187;SDS011;5650;52.700;7.306;2022-11-14T09:06:32;56.03;;;38.83;;
11187;SDS011;5650;52.700;7.306;2022-11-14T09:09:01;59.50;;;40.10;;
11187;SDS011;5650;52.700;7.306;2022-11-14T09:11:28;60.28;;;38.53;;
11187;SDS011;5650;52.700;7.306;2022-11-14T09:13:56;55.33;;;38.22;;
11187;SDS011;5650;52.700;7.306;2022-11-14T09:16:23;52.65;;;36.78;;
11187;SDS011;5650;52.700;7.306;2022-11-14T09:18:51;51.92;;;35.20;;
11187;SDS011;5650;52.700;7.306;2022-11-14T09:21:18;54.72;;;36.88;;
11187;SDS011;5650;52.700;7.306;2022-11-14T09:23:45;46.67;;;32.83;;
11187;SDS011;5650;52.700;7.306;2022-11-14T09:26:14;48.20;;;32.92;;
11187;SDS011;5650;52.700;7.306;2022-11-14T09:28:42;49.40;;;34.17;;
11187;SDS011;5650;52.700;7.306;2022-11-14T09:31:10;44.78;;;32.38;;
11187;SDS011;5650;52.700;7.306;2022-11-14T09:33:39;47.13;;;31.50;;
11187;SDS011;5650;52.700;7.306;2022-11-14T09:36:07;49.15;;;32.63;;
11187;SDS011;5650;52.700;7.306;2022-11-14T09:38:39;47.22;;;33.22;;
11187;SDS011;5650;52.700;7.306;2022-11-14T09:41:18;43.78;;;31.67;;
11187;SDS011;5650;52.700;7.306;2022-11-14T09:46:44;43.20;;;30.88;;
11187;SDS011;5650;52.700;7.306;2022-11-14T09:49:28;46.67;;;32.30;;
11187;SDS011;5650;52.700;7.306;2022-11-14T09:52:08;45.35;;;30.10;;
11187;SDS011;5650;52.700;7.306;2022-11-14T09:54:55;42.33;;;29.38;;
11187;SDS011;5650;52.700;7.306;2022-11-14T09:57:41;45.15;;;30.77;;
11187;SDS011;5650;52.700;7.306;2022-11-14T10:00:13;40.65;;;29.25;;
11187;SDS011;5650;52.700;7.306;2022-11-14T10:05:45;38.38;;;28.27;;
11187;SDS011;5650;52.700;7.306;2022-11-14T10:08:27;41.83;;;29.20;;
11187;SDS011;5650;52.700;7.306;2022-11-14T10:11:15;42.88;;;30.02;;
11187;SDS011;5650;52.700;7.306;2022-11-14T10:17:13;43.40;;;29.10;;
11187;SDS011;5650;52.700;7.306;2022-11-14T10:20:06;38.17;;;28.02;;
11187;SDS011;5650;52.700;7.306;2022-11-14T10:22:50;38.50;;;28.48;;
11187;SDS011;5650;52.700;7.306;2022-11-14T10:25:39;37.90;;;27.85;;
11187;SDS011;5650;52.700;7.306;2022-11-14T10:28:19;39.97;;;28.05;;
11187;SDS011;5650;52.700;7.306;2022-11-14T10:31:17;38.78;;;27.05;;
11187;SDS011;5650;52.700;7.306;2022-11-14T10:33:56;39.70;;;27.50;;
11187;SDS011;5650;52.700;7.306;2022-11-14T10:36:43;35.25;;;26.63;;
11187;SDS011;5650;52.700;7.306;2022-11-14T10:39:16;37.78;;;28.40;;
11187;SDS011;5650;52.700;7.306;2022-11-14T10:41:51;36.15;;;25.88;;
11187;SDS011;5650;52.700;7.306;2022-11-14T10:44:22;37.53;;;26.80;;
11187;SDS011;5650;52.700;7.306;2022-11-14T10:46:57;35.75;;;26.60;;
11187;SDS011;5650;52.700;7.306;2022-11-14T10:49:30;37.75;;;27.10;;
11187;SDS011;5650;52.700;7.306;2022-11-14T10:52:04;35.97;;;26.52;;
11187;SDS011;5650;52.700;7.306;2022-11-14T10:54:43;35.30;;;25.85;;
11187;SDS011;5650;52.700;7.306;2022-11-14T10:57:17;34.15;;;24.08;;
11187;SDS011;5650;52.700;7.306;2022-11-14T10:59:45;37.08;;;26.02;;
11187;SDS011;5650;52.700;7.306;2022-11-14T11:02:29;32.17;;;25.17;;
11187;SDS011;5650;52.700;7.306;2022-11-14T11:05:14;33.58;;;25.67;;
11187;SDS011;5650;52.700;7.306;2022-11-14T11:07:43;32.08;;;24.75;;
11187;SDS011;5650;52.700;7.306;2022-11-14T11:10:34;33.92;;;25.25;;
11187;SDS011;5650;52.700;7.306;2022-11-14T11:13:29;36.63;;;27.52;;
11187;SDS011;5650;52.700;7.306;2022-11-14T11:15:58;33.33;;;25.70;;
11187;SDS011;5650;52.700;7.306;2022-11-14T11:18:29;32.13;;;24.67;;
11187;SDS011;5650;52.700;7.306;2022-11-14T11:21:02;29.42;;;23.42;;
11187;SDS011;5650;52.700;7.306;2022-11-14T11:23:31;31.40;;;24.88;;
11187;SDS011;5650;52.700;7.306;2022-11-14T11:26:05;32.67;;;25.00;;
11187;SDS011;5650;52.700;7.306;2022-11-14T11:28:42;29.88;;;24.13;;
11187;SDS011;5650;52.700;7.306;2022-11-14T11:31:25;32.33;;;24.73;;
11187;SDS011;5650;52.700;7.306;2022-11-14T11:34:04;31.15;;;22.73;;
11187;SDS011;5650;52.700;7.306;2022-11-14T11:36:35;30.58;;;22.95;;
11187;SDS011;5650;52.700;7.306;2022-11-14T11:39:09;31.60;;;24.65;;
11187;SDS011;5650;52.700;7.306;2022-11-14T11:41:54;30.33;;;22.70;;
11187;SDS011;5650;52.700;7.306;2022-11-14T11:44:24;30.50;;;24.05;;
11187;SDS011;5650;52.700;7.306;2022-11-14T11:47:00;30.77;;;23.73;;
11187;SDS011;5650;52.700;7.306;2022-11-14T11:49:34;28.88;;;22.35;;
11187;SDS011;5650;52.700;7.306;2022-11-14T11:52:10;29.83;;;22.10;;
11187;SDS011;5650;52.700;7.306;2022-11-14T11:54:43;33.47;;;22.95;;
11187;SDS011;5650;52.700;7.306;2022-11-14T11:57:27;29.05;;;22.48;;
11187;SDS011;5650;52.700;7.306;2022-11-14T12:00:04;27.55;;;21.38;;
11187;SDS011;5650;52.700;7.306;2022-11-14T12:02:43;27.83;;;21.27;;
11187;SDS011;5650;52.700;7.306;2022-11-14T12:05:15;29.20;;;20.40;;
11187;SDS011;5650;52.700;7.306;2022-11-14T12:07:51;26.50;;;21.20;;
11187;SDS011;5650;52.700;7.306;2022-11-14T12:10:30;28.80;;;21.58;;
11187;SDS011;5650;52.700;7.306;2022-11-14T12:13:13;27.52;;;21.08;;
11187;SDS011;5650;52.700;7.306;2022-11-14T12:16:27;27.85;;;22.15;;
11187;SDS011;5650;52.700;7.306;2022-11-14T12:22:19;28.20;;;21.27;;
11187;SDS011;5650;52.700;7.306;2022-11-14T12:25:33;27.70;;;20.45;;
11187;SDS011;5650;52.700;7.306;2022-11-14T12:28:18;26.83;;;20.38;;
11187;SDS011;5650;52.700;7.306;2022-11-14T12:31:10;26.85;;;21.27;;
11187;SDS011;5650;52.700;7.306;2022-11-14T12:33:42;23.95;;;19.75;;
11187;SDS011;5650;52.700;7.306;2022-11-14T12:36:22;24.92;;;19.35;;
11187;SDS011;5650;52.700;7.306;2022-11-14T12:38:58;23.13;;;19.13;;
11187;SDS011;5650;52.700;7.306;2022-11-14T12:41:27;24.63;;;19.20;;
11187;SDS011;5650;52.700;7.306;2022-11-14T12:44:15;21.65;;;17.65;;
11187;SDS011;5650;52.700;7.306;2022-11-14T12:47:10;23.45;;;17.88;;
11187;SDS011;5650;52.700;7.306;2022-11-14T12:52:45;21.85;;;17.98;;
11187;SDS011;5650;52.700;7.306;2022-11-14T12:58:47;21.50;;;17.55;;
11187;SDS011;5650;52.700;7.306;2022-11-14T13:01:32;23.08;;;17.55;;
11187;SDS011;5650;52.700;7.306;2022-11-14T13:04:16;23.50;;;17.98;;
11187;SDS011;5650;52.700;7.306;2022-11-14T13:06:53;22.15;;;18.60;;
11187;SDS011;5650;52.700;7.306;2022-11-14T13:09:33;24.17;;;16.77;;
11187;SDS011;5650;52.700;7.306;2022-11-14T13:15:27;21.08;;;17.38;;
11187;SDS011;5650;52.700;7.306;2022-11-14T13:18:14;21.58;;;18.05;;
11187;SDS011;5650;52.700;7.306;2022-11-14T13:21:04;22.98;;;18.33;;
11187;SDS011;5650;52.700;7.306;2022-11-14T13:23:58;19.33;;;16.38;;
11187;SDS011;5650;52.700;7.306;2022-11-14T13:26:39;20.83;;;17.65;;
11187;SDS011;5650;52.700;7.306;2022-11-14T13:44:57;19.27;;;16.17;;
11187;SDS011;5650;52.700;7.306;2022-11-14T13:48:06;21.83;;;15.30;;
11187;SDS011;5650;52.700;7.306;2022-11-14T13:51:04;18.55;;;15.23;;
11187;SDS011;5650;52.700;7.306;2022-11-14T13:53:35;21.17;;;16.00;;
11187;SDS011;5650;52.700;7.306;2022-11-14T13:56:09;17.65;;;15.63;;
11187;SDS011;5650;52.700;7.306;2022-11-14T13:58:56;17.23;;;15.27;;
11187;SDS011;5650;52.700;7.306;2022-11-14T14:01:54;20.08;;;16.33;;
11187;SDS011;5650;52.700;7.306;2022-11-14T14:04:47;17.05;;;14.75;;
11187;SDS011;5650;52.700;7.306;2022-11-14T14:07:25;18.38;;;15.73;;
11187;SDS011;5650;52.700;7.306;2022-11-14T14:10:04;17.92;;;14.90;;
11187;SDS011;5650;52.700;7.306;2022-11-14T14:12:45;19.77;;;15.32;;
11187;SDS011;5650;52.700;7.306;2022-11-14T14:15:31;19.45;;;16.60;;
11187;SDS011;5650;52.700;7.306;2022-11-14T14:18:08;18.10;;;15.65;;
11187;SDS011;5650;52.700;7.306;2022-11-14T14:20:53;23.35;;;17.55;;
11187;SDS011;5650;52.700;7.306;2022-11-14T14:23:36;18.33;;;15.82;;
11187;SDS011;5650;52.700;7.306;2022-11-14T14:26:15;22.67;;;16.88;;
11187;SDS011;5650;52.700;7.306;2022-11-14T14:28:59;21.13;;;16.38;;
11187;SDS011;5650;52.700;7.306;2022-11-14T14:31:33;19.67;;;15.40;;
11187;SDS011;5650;52.700;7.306;2022-11-14T14:34:26;20.02;;;15.70;;
11187;SDS011;5650;52.700;7.306;2022-11-14T14:36:56;19.17;;;16.05;;
11187;SDS011;5650;52.700;7.306;2022-11-14T14:39:39;20.35;;;16.08;;
11187;SDS011;5650;52.700;7.306;2022-11-14T14:42:12;20.08;;;16.23;;
11187;SDS011;5650;52.700;7.306;2022-11-14T14:44:50;20.50;;;16.52;;
11187;SDS011;5650;52.700;7.306;2022-11-14T14:47:29;18.92;;;15.65;;
11187;SDS011;5650;52.700;7.306;2022-11-14T14:50:02;19.73;;;16.35;;
11187;SDS011;5650;52.700;7.306;2022-11-14T14:52:33;22.13;;;17.20;;
11187;SDS011;5650;52.700;7.306;2022-11-14T14:55:15;26.92;;;17.17;;
11187;SDS011;5650;52.700;7.306;2022-11-14T14:57:45;21.38;;;16.92;;
11187;SDS011;5650;52.700;7.306;2022-11-14T15:00:21;19.63;;;16.80;;
11187;SDS011;5650;52.700;7.306;2022-11-14T15:02:51;18.75;;;16.30;;
11187;SDS011;5650;52.700;7.306;2022-11-14T15:05:21;20.13;;;16.52;;
11187;SDS011;5650;52.700;7.306;2022-11-14T15:07:49;19.35;;;16.30;;
11187;SDS011;5650;52.700;7.306;2022-11-14T15:10:26;19.90;;;16.33;;
11187;SDS011;5650;52.700;7.306;2022-11-14T15:12:55;17.45;;;15.52;;
11187;SDS011;5650;52.700;7.306;2022-11-14T15:15:23;20.85;;;16.60;;
11187;SDS011;5650;52.700;7.306;2022-11-14T15:17:55;20.35;;;15.73;;
11187;SDS011;5650;52.700;7.306;2022-11-14T15:20:28;20.08;;;16.63;;
11187;SDS011;5650;52.700;7.306;2022-11-14T15:23:02;20.52;;;16.08;;
11187;SDS011;5650;52.700;7.306;2022-11-14T15:25:32;20.98;;;17.45;;
11187;SDS011;5650;52.700;7.306;2022-11-14T15:28:00;23.30;;;17.38;;
11187;SDS011;5650;52.700;7.306;2022-11-14T15:30:28;23.00;;;17.13;;
11187;SDS011;5650;52.700;7.306;2022-11-14T15:33:00;22.35;;;16.60;;
11187;SDS011;5650;52.700;7.306;2022-11-14T15:35:30;19.67;;;17.25;;
11187;SDS011;5650;52.700;7.306;2022-11-14T15:37:58;20.30;;;17.65;;
11187;SDS011;5650;52.700;7.306;2022-11-14T15:41:07;21.23;;;17.63;;
11187;SDS011;5650;52.700;7.306;2022-11-14T15:43:59;20.42;;;17.38;;
11187;SDS011;5650;52.700;7.306;2022-11-14T15:49:21;21.60;;;16.83;;